WetterOnline ( https://www.wetteronline.ch )

Wetter aktuell Schwerin

Aktuelles Wetter: Schwerin (68m)

6-stündlich | Neueste Meldungen
Ortszeit Temperatur Wetter
So, 15.09. 8:00 9.1° C wolkig
So, 15.09. 2:00 9.8° C wolkig
Sa, 14.09. 20:00 14.6° C leicht bewölkt
Sa, 14.09. 14:00 17.0° C wolkig
Sa, 14.09. 8:00 8.1° C fast wolkenlos
Sa, 14.09. 2:00 10.8° C leicht bewölkt
Fr, 13.09. 20:00 15.0° C bedeckt
Fr, 13.09. 14:00 18.2° C leicht bewölkt
Ortszeit Temperatur Wetter
So, 15.09. 11:00 15.2° C wolkig
So, 15.09. 10:50 15.2° C wolkig
So, 15.09. 10:40 14.9° C wolkig
So, 15.09. 10:30 14.4° C wolkig
So, 15.09. 10:20 14.4° C wolkig
So, 15.09. 10:10 14.3° C wolkig
So, 15.09. 10:00 13.9° C -
So, 15.09. 9:30 12.3° C -
So, 15.09. 9:00 10.7° C wolkig
So, 15.09. 8:30 9.7° C wolkig
So, 15.09. 8:00 9.1° C wolkig
Ortszeit Relative Feuchte Sichtweite
So, 15.09. 8:00 76% 45 km
So, 15.09. 2:00 78% 55 km
Sa, 14.09. 20:00 61% 35 km
Sa, 14.09. 14:00 49% 45 km
Sa, 14.09. 8:00 94% 30 km
Sa, 14.09. 2:00 85% 40 km
Fr, 13.09. 20:00 59% 55 km
Fr, 13.09. 14:00 58% 50 km
Ortszeit Relative Feuchte Sichtweite
So, 15.09. 11:00 59% 65 km
So, 15.09. 10:50 59% -
So, 15.09. 10:40 60% -
So, 15.09. 10:30 61% 65 km
So, 15.09. 10:20 61% -
So, 15.09. 10:10 62% -
So, 15.09. 10:00 63% 55 km
So, 15.09. 9:30 69% 55 km
So, 15.09. 9:00 74% 50 km
So, 15.09. 8:30 76% 55 km
So, 15.09. 8:00 76% 45 km
Ortszeit Niederschlagsmenge Niederschlagsart
So, 15.09. 8:00 0.0 l/m2 in 12 Std. -
So, 15.09. 2:00 0.0 l/m2 in 6 Std. -
Sa, 14.09. 20:00 0.0 l/m2 in 12 Std. -
Sa, 14.09. 14:00 0.0 l/m2 in 6 Std. -
Sa, 14.09. 8:00 0.0 l/m2 in 12 Std. -
Sa, 14.09. 2:00 0.0 l/m2 in 6 Std. -
Fr, 13.09. 20:00 5 l/m2 in 12 Std. -
Fr, 13.09. 14:00 5 l/m2 in 6 Std. Regen
Ortszeit Niederschlagsmenge Niederschlagsart
So, 15.09. 11:00 0.0 l/m2 in 1 Std. -
So, 15.09. 10:50 keine Meldung -
So, 15.09. 10:40 keine Meldung -
So, 15.09. 10:30 0.0 l/m2 in 1 Std. -
So, 15.09. 10:20 keine Meldung -
So, 15.09. 10:10 keine Meldung -
So, 15.09. 10:00 0.0 l/m2 in 1 Std. -
So, 15.09. 9:30 0.0 l/m2 in 1 Std. -
So, 15.09. 9:00 0.0 l/m2 in 1 Std. -
So, 15.09. 8:30 0.0 l/m2 in 1 Std. -
So, 15.09. 8:00 0.0 l/m2 in 1 Std. -
Ortszeit Stärke Spitze Richtung
km/h Bft. km/h Grad Sektor
So, 15.09. 8:00 18 3 29 220° SW
So, 15.09. 2:00 13 3 22 200° S
Sa, 14.09. 20:00 7 2 22 190° S
Sa, 14.09. 14:00 14 3 25 260° W
Sa, 14.09. 8:00 7 2 14 240° SW
Sa, 14.09. 2:00 9 2 22 280° W
Fr, 13.09. 20:00 11 2 39 300° NW
Fr, 13.09. 14:00 19 3 39 290° W
Ortszeit Stärke Spitze Richtung
km/h Bft. km/h Grad Sektor
So, 15.09. 11:00 24 4 39 240° SW
So, 15.09. 10:50 24 4 - 240° SW
So, 15.09. 10:40 24 4 - 240° SW
So, 15.09. 10:30 25 4 40 240° SW
So, 15.09. 10:20 25 4 - 240° SW
So, 15.09. 10:10 25 4 - 230° SW
So, 15.09. 10:00 25 4 36 240° SW
So, 15.09. 9:30 18 3 29 230° SW
So, 15.09. 9:00 14 3 29 220° SW
So, 15.09. 8:30 17 3 28 220° SW
So, 15.09. 8:00 18 3 29 220° SW
Ortszeit Untergrenze Bedeckung Gattung
total tief tief mittel hoch
So, 15.09. 8:00 8400 m 8/8 0/8 - - -
So, 15.09. 2:00 9000 m 8/8 0/8 - - -
Sa, 14.09. 20:00 9000 m 6/8 0/8 - - -
Sa, 14.09. 14:00 1380 m 6/8 2/8 - - -
Sa, 14.09. 8:00 10500 m 2/8 0/8 - - -
Sa, 14.09. 2:00 8700 m 6/8 0/8 - - -
Fr, 13.09. 20:00 5700 m 8/8 8/8 - - -
Fr, 13.09. 14:00 930 m 4/8 4/8 - - -
Ortszeit Bedeckungsgrad in Achtel und Wolkenuntergrenze
So, 15.09. 11:00 5(8400m) 8(9000m)
So, 15.09. 10:50 5(8400m) 8(9000m)
So, 15.09. 10:40 6(8400m) 8(9000m)
So, 15.09. 10:30 1(7800m) 7(9000m) 8(10500m)
So, 15.09. 10:20 1(7800m) 7(9000m) 8(10500m)
So, 15.09. 10:10 3(7800m) 7(9000m) 8(10500m)
So, 15.09. 10:00 -
So, 15.09. 9:30 -
So, 15.09. 9:00 3(8700m) 8(9000m) 7(10500m)
So, 15.09. 8:30 8(9000m)
So, 15.09. 8:00 3(8400m) 4(9000m) 8(9000m)
Ortszeit Luftdruck NN (hPa) Tendenz (hPa in 3 Std.)
So, 15.09. 8:00 1020 - 2,2
So, 15.09. 2:00 1025 - 3,0
Sa, 14.09. 20:00 1029 - 2,1
Sa, 14.09. 14:00 1034 - 1,4
Sa, 14.09. 8:00 1035 + 0,1
Sa, 14.09. 2:00 1034 + 0,7
Fr, 13.09. 20:00 1032 + 1,4
Fr, 13.09. 14:00 1030 + 2,4
Ortszeit Luftdruck NN (hPa) Tendenz (hPa in 3 Std.)
So, 15.09. 11:00 1018 - 1,6
So, 15.09. 10:50 1018 keine Meldung
So, 15.09. 10:40 1018 keine Meldung
So, 15.09. 10:30 1019 - 1,5
So, 15.09. 10:20 1019 keine Meldung
So, 15.09. 10:10 1019 keine Meldung
So, 15.09. 10:00 1019 - 1,6
So, 15.09. 9:30 1019 - 1,8
So, 15.09. 9:00 1020 - 2,0
So, 15.09. 8:30 1020 - 2,2
So, 15.09. 8:00 1020 - 2,2
Ortszeit Schneehöhe (cm)
So, 15.09. 8:00 -
So, 15.09. 2:00 -
Sa, 14.09. 20:00 -
Sa, 14.09. 14:00 -
Sa, 14.09. 8:00 -
Sa, 14.09. 2:00 -
Fr, 13.09. 20:00 -
Fr, 13.09. 14:00 -
Ortszeit Schneehöhe (cm)
So, 15.09. 11:00 -
So, 15.09. 10:50 -
So, 15.09. 10:40 -
So, 15.09. 10:30 -
So, 15.09. 10:20 -
So, 15.09. 10:10 -
So, 15.09. 10:00 -
So, 15.09. 9:30 -
So, 15.09. 9:00 -
So, 15.09. 8:30 -
So, 15.09. 8:00 -
Link zu dieser Seite / Seite empfehlen

Das Wetter in ...